sensor_id;sensor_type;location;lat;lon;timestamp;temperature;humidity
8824;DHT22;4448;50.904;4.694;2023-09-30T00:01:01;17.10;99.90
8824;DHT22;4448;50.904;4.694;2023-09-30T00:03:27;17.80;99.90
8824;DHT22;4448;50.904;4.694;2023-09-30T00:05:53;17.00;99.90
8824;DHT22;4448;50.904;4.694;2023-09-30T00:08:19;16.10;99.90
8824;DHT22;4448;50.904;4.694;2023-09-30T00:10:45;17.10;99.90
8824;DHT22;4448;50.904;4.694;2023-09-30T00:13:12;17.00;99.90
8824;DHT22;4448;50.904;4.694;2023-09-30T00:15:38;17.00;99.90
8824;DHT22;4448;50.904;4.694;2023-09-30T00:18:04;17.20;99.90
8824;DHT22;4448;50.904;4.694;2023-09-30T00:20:31;16.90;99.90
8824;DHT22;4448;50.904;4.694;2023-09-30T00:22:56;17.20;99.90
8824;DHT22;4448;50.904;4.694;2023-09-30T00:25:22;17.30;99.90
8824;DHT22;4448;50.904;4.694;2023-09-30T00:27:48;17.10;99.90
8824;DHT22;4448;50.904;4.694;2023-09-30T00:30:14;17.10;99.90
8824;DHT22;4448;50.904;4.694;2023-09-30T00:32:39;17.00;99.90
8824;DHT22;4448;50.904;4.694;2023-09-30T00:35:08;17.10;99.90
8824;DHT22;4448;50.904;4.694;2023-09-30T00:37:37;16.50;99.90
8824;DHT22;4448;50.904;4.694;2023-09-30T00:40:03;16.60;99.90
8824;DHT22;4448;50.904;4.694;2023-09-30T00:42:29;17.00;99.90
8824;DHT22;4448;50.904;4.694;2023-09-30T00:44:55;17.60;99.90
8824;DHT22;4448;50.904;4.694;2023-09-30T00:47:21;17.00;99.90
8824;DHT22;4448;50.904;4.694;2023-09-30T00:49:47;16.70;99.90
8824;DHT22;4448;50.904;4.694;2023-09-30T00:52:14;16.90;99.90
8824;DHT22;4448;50.904;4.694;2023-09-30T00:54:40;17.40;99.90
8824;DHT22;4448;50.904;4.694;2023-09-30T00:57:08;16.90;99.90
8824;DHT22;4448;50.904;4.694;2023-09-30T00:59:33;16.80;99.90
8824;DHT22;4448;50.904;4.694;2023-09-30T01:01:59;17.30;99.90
8824;DHT22;4448;50.904;4.694;2023-09-30T01:04:29;16.80;99.90
8824;DHT22;4448;50.904;4.694;2023-09-30T01:06:54;16.90;99.90
8824;DHT22;4448;50.904;4.694;2023-09-30T01:09:23;16.80;99.90
8824;DHT22;4448;50.904;4.694;2023-09-30T01:11:48;16.70;99.90
8824;DHT22;4448;50.904;4.694;2023-09-30T01:14:28;16.60;99.90
8824;DHT22;4448;50.904;4.694;2023-09-30T01:16:54;17.70;99.90
8824;DHT22;4448;50.904;4.694;2023-09-30T01:19:21;17.30;99.90
8824;DHT22;4448;50.904;4.694;2023-09-30T01:21:46;16.60;99.90
8824;DHT22;4448;50.904;4.694;2023-09-30T01:24:15;16.80;99.90
8824;DHT22;4448;50.904;4.694;2023-09-30T01:26:41;16.90;99.90
8824;DHT22;4448;50.904;4.694;2023-09-30T01:29:09;16.80;99.90
8824;DHT22;4448;50.904;4.694;2023-09-30T01:31:38;17.80;99.90
8824;DHT22;4448;50.904;4.694;2023-09-30T01:34:04;16.60;99.90
8824;DHT22;4448;50.904;4.694;2023-09-30T01:36:31;16.80;99.90
8824;DHT22;4448;50.904;4.694;2023-09-30T01:38:56;16.40;99.90
8824;DHT22;4448;50.904;4.694;2023-09-30T01:41:22;17.10;99.90
8824;DHT22;4448;50.904;4.694;2023-09-30T01:43:48;16.80;99.90
8824;DHT22;4448;50.904;4.694;2023-09-30T01:46:14;16.80;99.90
8824;DHT22;4448;50.904;4.694;2023-09-30T01:48:40;16.80;99.90
8824;DHT22;4448;50.904;4.694;2023-09-30T01:51:06;16.60;99.90
8824;DHT22;4448;50.904;4.694;2023-09-30T01:53:32;16.70;99.90
8824;DHT22;4448;50.904;4.694;2023-09-30T01:55:59;17.50;99.90
8824;DHT22;4448;50.904;4.694;2023-09-30T01:58:24;16.50;99.90
8824;DHT22;4448;50.904;4.694;2023-09-30T02:00:51;16.60;99.90
8824;DHT22;4448;50.904;4.694;2023-09-30T02:03:17;16.80;99.90
8824;DHT22;4448;50.904;4.694;2023-09-30T02:05:43;17.10;99.90
8824;DHT22;4448;50.904;4.694;2023-09-30T02:10:35;16.70;99.90
8824;DHT22;4448;50.904;4.694;2023-09-30T02:13:03;16.50;99.90
8824;DHT22;4448;50.904;4.694;2023-09-30T02:15:31;16.30;99.90
8824;DHT22;4448;50.904;4.694;2023-09-30T02:17:57;16.60;99.90
8824;DHT22;4448;50.904;4.694;2023-09-30T02:20:23;16.70;99.90
8824;DHT22;4448;50.904;4.694;2023-09-30T02:22:51;16.60;99.90
8824;DHT22;4448;50.904;4.694;2023-09-30T02:25:17;16.10;99.90
8824;DHT22;4448;50.904;4.694;2023-09-30T02:27:43;16.60;99.90
8824;DHT22;4448;50.904;4.694;2023-09-30T02:30:11;16.70;99.90
8824;DHT22;4448;50.904;4.694;2023-09-30T02:32:42;16.70;99.90
8824;DHT22;4448;50.904;4.694;2023-09-30T02:35:08;16.60;99.90
8824;DHT22;4448;50.904;4.694;2023-09-30T02:37:36;17.60;99.90
8824;DHT22;4448;50.904;4.694;2023-09-30T02:40:06;16.70;99.90
8824;DHT22;4448;50.904;4.694;2023-09-30T02:42:35;16.10;99.90
8824;DHT22;4448;50.904;4.694;2023-09-30T02:45:03;16.80;99.90
8824;DHT22;4448;50.904;4.694;2023-09-30T02:47:29;15.70;99.90
8824;DHT22;4448;50.904;4.694;2023-09-30T02:49:57;16.80;99.90
8824;DHT22;4448;50.904;4.694;2023-09-30T02:52:26;16.40;99.90
8824;DHT22;4448;50.904;4.694;2023-09-30T02:54:52;16.70;99.90
8824;DHT22;4448;50.904;4.694;2023-09-30T02:57:18;16.40;99.90
8824;DHT22;4448;50.904;4.694;2023-09-30T02:59:44;16.50;99.90
8824;DHT22;4448;50.904;4.694;2023-09-30T03:02:11;16.40;99.90
8824;DHT22;4448;50.904;4.694;2023-09-30T03:04:37;16.50;99.90
8824;DHT22;4448;50.904;4.694;2023-09-30T03:07:03;16.40;99.90
8824;DHT22;4448;50.904;4.694;2023-09-30T03:09:28;16.40;99.90
8824;DHT22;4448;50.904;4.694;2023-09-30T03:11:54;16.00;99.90
8824;DHT22;4448;50.904;4.694;2023-09-30T03:14:24;16.50;99.90
8824;DHT22;4448;50.904;4.694;2023-09-30T03:16:51;16.50;99.90
8824;DHT22;4448;50.904;4.694;2023-09-30T03:19:17;16.40;99.90
8824;DHT22;4448;50.904;4.694;2023-09-30T03:21:43;16.50;99.90
8824;DHT22;4448;50.904;4.694;2023-09-30T03:24:09;16.40;99.90
8824;DHT22;4448;50.904;4.694;2023-09-30T03:26:35;16.40;99.90
8824;DHT22;4448;50.904;4.694;2023-09-30T03:29:01;16.30;99.90
8824;DHT22;4448;50.904;4.694;2023-09-30T03:31:27;16.40;99.90
8824;DHT22;4448;50.904;4.694;2023-09-30T03:33:52;16.30;99.90
8824;DHT22;4448;50.904;4.694;2023-09-30T03:36:21;16.30;99.90
8824;DHT22;4448;50.904;4.694;2023-09-30T03:38:53;16.30;99.90
8824;DHT22;4448;50.904;4.694;2023-09-30T03:41:19;16.40;99.90
8824;DHT22;4448;50.904;4.694;2023-09-30T03:43:45;16.30;99.90
8824;DHT22;4448;50.904;4.694;2023-09-30T03:46:11;16.40;99.90
8824;DHT22;4448;50.904;4.694;2023-09-30T03:48:38;14.60;99.90
8824;DHT22;4448;50.904;4.694;2023-09-30T03:51:11;16.30;99.90
8824;DHT22;4448;50.904;4.694;2023-09-30T03:53:41;16.40;99.90
8824;DHT22;4448;50.904;4.694;2023-09-30T03:56:07;16.30;99.90
8824;DHT22;4448;50.904;4.694;2023-09-30T03:58:33;16.40;99.90
8824;DHT22;4448;50.904;4.694;2023-09-30T04:00:59;15.90;99.90
8824;DHT22;4448;50.904;4.694;2023-09-30T04:03:26;16.50;99.90
8824;DHT22;4448;50.904;4.694;2023-09-30T04:05:54;16.30;99.90
8824;DHT22;4448;50.904;4.694;2023-09-30T04:08:20;16.60;99.90
8824;DHT22;4448;50.904;4.694;2023-09-30T04:10:47;16.20;99.90
8824;DHT22;4448;50.904;4.694;2023-09-30T04:13:13;16.10;99.90
8824;DHT22;4448;50.904;4.694;2023-09-30T04:15:39;16.60;99.90
8824;DHT22;4448;50.904;4.694;2023-09-30T04:18:05;16.20;99.90
8824;DHT22;4448;50.904;4.694;2023-09-30T04:20:31;16.10;99.90
8824;DHT22;4448;50.904;4.694;2023-09-30T04:22:57;16.20;99.90
8824;DHT22;4448;50.904;4.694;2023-09-30T04:25:24;16.00;99.90
8824;DHT22;4448;50.904;4.694;2023-09-30T04:27:53;16.20;99.90
8824;DHT22;4448;50.904;4.694;2023-09-30T04:30:19;15.70;99.90
8824;DHT22;4448;50.904;4.694;2023-09-30T04:32:45;16.20;99.90
8824;DHT22;4448;50.904;4.694;2023-09-30T04:35:11;16.10;99.90
8824;DHT22;4448;50.904;4.694;2023-09-30T04:37:37;16.10;99.90
8824;DHT22;4448;50.904;4.694;2023-09-30T04:40:08;16.10;99.90
8824;DHT22;4448;50.904;4.694;2023-09-30T04:42:41;16.20;99.90
8824;DHT22;4448;50.904;4.694;2023-09-30T04:45:09;16.20;99.90
8824;DHT22;4448;50.904;4.694;2023-09-30T04:47:35;16.30;99.90
8824;DHT22;4448;50.904;4.694;2023-09-30T04:50:03;16.40;99.90
8824;DHT22;4448;50.904;4.694;2023-09-30T04:52:33;16.20;99.90
8824;DHT22;4448;50.904;4.694;2023-09-30T04:54:58;15.80;99.90
8824;DHT22;4448;50.904;4.694;2023-09-30T04:57:26;16.00;99.90
8824;DHT22;4448;50.904;4.694;2023-09-30T04:59:52;16.10;99.90
8824;DHT22;4448;50.904;4.694;2023-09-30T05:02:19;16.00;99.90
8824;DHT22;4448;50.904;4.694;2023-09-30T05:04:45;16.00;99.90
8824;DHT22;4448;50.904;4.694;2023-09-30T05:07:11;16.20;99.90
8824;DHT22;4448;50.904;4.694;2023-09-30T05:09:39;16.30;99.90
8824;DHT22;4448;50.904;4.694;2023-09-30T05:14:32;16.00;99.90
8824;DHT22;4448;50.904;4.694;2023-09-30T05:16:58;14.30;99.90
8824;DHT22;4448;50.904;4.694;2023-09-30T05:21:52;15.90;99.90
8824;DHT22;4448;50.904;4.694;2023-09-30T05:24:17;15.80;99.90
8824;DHT22;4448;50.904;4.694;2023-09-30T05:26:46;16.10;99.90
8824;DHT22;4448;50.904;4.694;2023-09-30T05:29:13;16.00;99.90
8824;DHT22;4448;50.904;4.694;2023-09-30T05:31:39;16.00;99.90
8824;DHT22;4448;50.904;4.694;2023-09-30T05:34:04;15.90;99.90
8824;DHT22;4448;50.904;4.694;2023-09-30T05:36:30;16.00;99.90
8824;DHT22;4448;50.904;4.694;2023-09-30T05:38:56;15.50;99.90
8824;DHT22;4448;50.904;4.694;2023-09-30T05:41:23;15.90;99.90
8824;DHT22;4448;50.904;4.694;2023-09-30T05:43:48;15.60;99.90
8824;DHT22;4448;50.904;4.694;2023-09-30T05:46:15;15.90;99.90
8824;DHT22;4448;50.904;4.694;2023-09-30T05:48:41;15.70;99.90
8824;DHT22;4448;50.904;4.694;2023-09-30T05:51:07;15.90;99.90
8824;DHT22;4448;50.904;4.694;2023-09-30T05:53:33;15.80;99.90
8824;DHT22;4448;50.904;4.694;2023-09-30T05:55:59;15.80;99.90
8824;DHT22;4448;50.904;4.694;2023-09-30T05:58:25;15.80;99.90
8824;DHT22;4448;50.904;4.694;2023-09-30T06:00:52;15.80;99.90
8824;DHT22;4448;50.904;4.694;2023-09-30T06:03:18;15.90;99.90
8824;DHT22;4448;50.904;4.694;2023-09-30T06:05:45;15.90;99.90
8824;DHT22;4448;50.904;4.694;2023-09-30T06:08:11;15.70;99.90
8824;DHT22;4448;50.904;4.694;2023-09-30T06:10:40;14.80;99.90
8824;DHT22;4448;50.904;4.694;2023-09-30T06:15:41;16.10;99.90
8824;DHT22;4448;50.904;4.694;2023-09-30T06:18:09;15.80;99.90
8824;DHT22;4448;50.904;4.694;2023-09-30T06:20:37;15.90;99.90
8824;DHT22;4448;50.904;4.694;2023-09-30T06:23:03;16.20;99.90
8824;DHT22;4448;50.904;4.694;2023-09-30T06:25:29;16.10;99.90
8824;DHT22;4448;50.904;4.694;2023-09-30T06:27:56;15.50;99.90
8824;DHT22;4448;50.904;4.694;2023-09-30T06:30:22;15.60;99.90
8824;DHT22;4448;50.904;4.694;2023-09-30T06:32:55;15.90;99.90
8824;DHT22;4448;50.904;4.694;2023-09-30T06:35:21;15.90;99.90
8824;DHT22;4448;50.904;4.694;2023-09-30T06:37:50;13.10;99.90
8824;DHT22;4448;50.904;4.694;2023-09-30T06:40:16;15.80;99.90
8824;DHT22;4448;50.904;4.694;2023-09-30T06:42:42;15.70;99.90
8824;DHT22;4448;50.904;4.694;2023-09-30T06:45:08;15.80;99.90
8824;DHT22;4448;50.904;4.694;2023-09-30T06:47:36;15.90;99.90
8824;DHT22;4448;50.904;4.694;2023-09-30T06:50:03;15.80;99.90
8824;DHT22;4448;50.904;4.694;2023-09-30T06:55:10;15.60;99.90
8824;DHT22;4448;50.904;4.694;2023-09-30T06:57:42;16.10;99.90
8824;DHT22;4448;50.904;4.694;2023-09-30T07:00:13;15.70;99.90
8824;DHT22;4448;50.904;4.694;2023-09-30T07:02:39;15.10;99.90
8824;DHT22;4448;50.904;4.694;2023-09-30T07:05:09;15.90;99.90
8824;DHT22;4448;50.904;4.694;2023-09-30T07:07:35;15.90;99.90
8824;DHT22;4448;50.904;4.694;2023-09-30T07:10:01;16.10;99.90
8824;DHT22;4448;50.904;4.694;2023-09-30T07:12:26;16.00;99.90
8824;DHT22;4448;50.904;4.694;2023-09-30T07:14:53;16.00;99.90
8824;DHT22;4448;50.904;4.694;2023-09-30T07:17:18;15.50;99.90
8824;DHT22;4448;50.904;4.694;2023-09-30T07:19:44;16.10;99.90
8824;DHT22;4448;50.904;4.694;2023-09-30T07:22:10;16.00;99.90
8824;DHT22;4448;50.904;4.694;2023-09-30T07:24:35;16.10;99.90
8824;DHT22;4448;50.904;4.694;2023-09-30T07:27:02;16.20;99.90
8824;DHT22;4448;50.904;4.694;2023-09-30T07:29:27;16.10;99.90
8824;DHT22;4448;50.904;4.694;2023-09-30T07:31:53;16.20;99.90
8824;DHT22;4448;50.904;4.694;2023-09-30T07:34:18;16.60;99.90
8824;DHT22;4448;50.904;4.694;2023-09-30T07:36:44;16.30;99.90
8824;DHT22;4448;50.904;4.694;2023-09-30T07:39:10;16.60;99.90
8824;DHT22;4448;50.904;4.694;2023-09-30T07:41:35;16.00;99.90
8824;DHT22;4448;50.904;4.694;2023-09-30T07:44:04;16.50;99.90
8824;DHT22;4448;50.904;4.694;2023-09-30T07:46:31;16.40;99.90
8824;DHT22;4448;50.904;4.694;2023-09-30T07:48:56;16.40;99.90
8824;DHT22;4448;50.904;4.694;2023-09-30T07:51:24;16.50;99.90
8824;DHT22;4448;50.904;4.694;2023-09-30T07:53:50;16.50;99.90
8824;DHT22;4448;50.904;4.694;2023-09-30T07:56:16;16.50;99.90
8824;DHT22;4448;50.904;4.694;2023-09-30T07:58:42;16.60;99.90
8824;DHT22;4448;50.904;4.694;2023-09-30T08:01:10;16.70;99.90
8824;DHT22;4448;50.904;4.694;2023-09-30T08:03:36;16.80;99.90
8824;DHT22;4448;50.904;4.694;2023-09-30T08:06:02;16.70;99.90
8824;DHT22;4448;50.904;4.694;2023-09-30T08:08:28;16.90;99.90
8824;DHT22;4448;50.904;4.694;2023-09-30T08:10:55;17.00;99.90
8824;DHT22;4448;50.904;4.694;2023-09-30T08:13:24;17.00;99.90
8824;DHT22;4448;50.904;4.694;2023-09-30T08:15:50;17.10;99.90
8824;DHT22;4448;50.904;4.694;2023-09-30T08:18:17;16.90;99.90
8824;DHT22;4448;50.904;4.694;2023-09-30T08:20:43;17.10;99.90
8824;DHT22;4448;50.904;4.694;2023-09-30T08:23:09;17.20;99.90
8824;DHT22;4448;50.904;4.694;2023-09-30T08:25:34;17.50;99.90
8824;DHT22;4448;50.904;4.694;2023-09-30T08:28:00;17.40;99.90
8824;DHT22;4448;50.904;4.694;2023-09-30T08:30:26;17.20;99.90
8824;DHT22;4448;50.904;4.694;2023-09-30T08:32:51;17.70;99.90
8824;DHT22;4448;50.904;4.694;2023-09-30T08:35:17;17.80;99.90
8824;DHT22;4448;50.904;4.694;2023-09-30T08:37:43;18.30;99.90
8824;DHT22;4448;50.904;4.694;2023-09-30T08:40:09;18.10;99.90
8824;DHT22;4448;50.904;4.694;2023-09-30T08:42:35;18.30;99.90
8824;DHT22;4448;50.904;4.694;2023-09-30T08:45:04;18.40;99.90
8824;DHT22;4448;50.904;4.694;2023-09-30T08:47:32;18.40;99.90
8824;DHT22;4448;50.904;4.694;2023-09-30T08:50:00;18.50;99.90
8824;DHT22;4448;50.904;4.694;2023-09-30T08:52:32;18.70;99.90
8824;DHT22;4448;50.904;4.694;2023-09-30T08:54:58;18.70;99.90
8824;DHT22;4448;50.904;4.694;2023-09-30T08:57:24;18.90;99.90
8824;DHT22;4448;50.904;4.694;2023-09-30T08:59:52;18.50;99.90
8824;DHT22;4448;50.904;4.694;2023-09-30T09:02:18;19.00;99.90
8824;DHT22;4448;50.904;4.694;2023-09-30T09:04:45;19.20;99.90
8824;DHT22;4448;50.904;4.694;2023-09-30T09:07:11;19.30;99.90
8824;DHT22;4448;50.904;4.694;2023-09-30T09:09:37;19.00;99.90
8824;DHT22;4448;50.904;4.694;2023-09-30T09:12:03;19.20;99.90
8824;DHT22;4448;50.904;4.694;2023-09-30T09:14:39;19.40;99.90
8824;DHT22;4448;50.904;4.694;2023-09-30T09:17:07;19.70;99.90
8824;DHT22;4448;50.904;4.694;2023-09-30T09:19:34;19.80;99.90
8824;DHT22;4448;50.904;4.694;2023-09-30T09:22:01;19.90;99.90
8824;DHT22;4448;50.904;4.694;2023-09-30T09:24:34;20.30;99.90
8824;DHT22;4448;50.904;4.694;2023-09-30T09:27:04;19.70;99.90
8824;DHT22;4448;50.904;4.694;2023-09-30T09:29:30;20.20;99.90
8824;DHT22;4448;50.904;4.694;2023-09-30T09:32:13;21.30;99.90
8824;DHT22;4448;50.904;4.694;2023-09-30T09:34:40;20.40;99.90
8824;DHT22;4448;50.904;4.694;2023-09-30T09:37:17;20.50;99.90
8824;DHT22;4448;50.904;4.694;2023-09-30T09:40:09;20.60;99.90
8824;DHT22;4448;50.904;4.694;2023-09-30T09:42:36;20.70;99.90
8824;DHT22;4448;50.904;4.694;2023-09-30T09:45:04;20.80;99.90
8824;DHT22;4448;50.904;4.694;2023-09-30T09:47:32;21.00;99.90
8824;DHT22;4448;50.904;4.694;2023-09-30T09:49:58;21.00;99.90
8824;DHT22;4448;50.904;4.694;2023-09-30T09:52:25;21.10;99.90
8824;DHT22;4448;50.904;4.694;2023-09-30T09:54:52;21.20;99.90
8824;DHT22;4448;50.904;4.694;2023-09-30T09:57:19;21.30;99.90
8824;DHT22;4448;50.904;4.694;2023-09-30T09:59:46;21.40;99.90
8824;DHT22;4448;50.904;4.694;2023-09-30T10:04:47;21.40;99.90
8824;DHT22;4448;50.904;4.694;2023-09-30T10:07:21;21.50;99.90
8824;DHT22;4448;50.904;4.694;2023-09-30T10:09:49;21.50;99.90
8824;DHT22;4448;50.904;4.694;2023-09-30T10:12:17;21.60;99.90
8824;DHT22;4448;50.904;4.694;2023-09-30T10:14:44;21.60;99.90
8824;DHT22;4448;50.904;4.694;2023-09-30T10:17:09;21.80;99.90
8824;DHT22;4448;50.904;4.694;2023-09-30T10:19:35;21.70;99.90
8824;DHT22;4448;50.904;4.694;2023-09-30T10:24:46;21.90;99.90
8824;DHT22;4448;50.904;4.694;2023-09-30T10:40:53;22.70;99.90
8824;DHT22;4448;50.904;4.694;2023-09-30T10:50:59;22.00;99.90
8824;DHT22;4448;50.904;4.694;2023-09-30T10:53:26;21.70;99.90
8824;DHT22;4448;50.904;4.694;2023-09-30T10:55:56;21.90;99.90
8824;DHT22;4448;50.904;4.694;2023-09-30T10:58:48;21.80;99.90
8824;DHT22;4448;50.904;4.694;2023-09-30T11:01:15;22.10;99.90
8824;DHT22;4448;50.904;4.694;2023-09-30T11:03:42;22.20;99.90
8824;DHT22;4448;50.904;4.694;2023-09-30T11:08:42;22.30;99.90
8824;DHT22;4448;50.904;4.694;2023-09-30T11:11:10;22.40;99.90
8824;DHT22;4448;50.904;4.694;2023-09-30T11:13:36;22.60;99.90
8824;DHT22;4448;50.904;4.694;2023-09-30T11:16:03;22.60;99.90
8824;DHT22;4448;50.904;4.694;2023-09-30T11:18:34;22.70;99.90
8824;DHT22;4448;50.904;4.694;2023-09-30T11:21:09;22.50;99.90
8824;DHT22;4448;50.904;4.694;2023-09-30T11:23:36;22.60;99.90
8824;DHT22;4448;50.904;4.694;2023-09-30T11:33:53;22.20;99.90
8824;DHT22;4448;50.904;4.694;2023-09-30T11:36:23;22.10;99.90
8824;DHT22;4448;50.904;4.694;2023-09-30T11:38:50;22.00;99.90
8824;DHT22;4448;50.904;4.694;2023-09-30T11:41:18;22.20;99.90
8824;DHT22;4448;50.904;4.694;2023-09-30T11:44:07;22.30;99.90
8824;DHT22;4448;50.904;4.694;2023-09-30T11:46:56;22.50;99.90
8824;DHT22;4448;50.904;4.694;2023-09-30T11:52:08;22.90;99.90
8824;DHT22;4448;50.904;4.694;2023-09-30T11:54:39;23.10;99.90
8824;DHT22;4448;50.904;4.694;2023-09-30T11:57:07;23.80;99.90
8824;DHT22;4448;50.904;4.694;2023-09-30T11:59:35;23.50;99.90
8824;DHT22;4448;50.904;4.694;2023-09-30T12:02:02;22.60;99.90
8824;DHT22;4448;50.904;4.694;2023-09-30T12:04:29;23.80;99.90
8824;DHT22;4448;50.904;4.694;2023-09-30T12:06:55;24.00;99.90
8824;DHT22;4448;50.904;4.694;2023-09-30T12:09:22;24.10;99.90
8824;DHT22;4448;50.904;4.694;2023-09-30T12:11:49;24.20;99.90
8824;DHT22;4448;50.904;4.694;2023-09-30T12:14:15;24.20;99.90
8824;DHT22;4448;50.904;4.694;2023-09-30T12:16:41;24.30;99.90
8824;DHT22;4448;50.904;4.694;2023-09-30T12:19:07;24.30;99.90
8824;DHT22;4448;50.904;4.694;2023-09-30T12:21:34;24.30;99.90
8824;DHT22;4448;50.904;4.694;2023-09-30T12:24:03;24.30;99.90
8824;DHT22;4448;50.904;4.694;2023-09-30T12:26:32;24.00;99.90
8824;DHT22;4448;50.904;4.694;2023-09-30T12:28:58;24.10;99.90
8824;DHT22;4448;50.904;4.694;2023-09-30T12:31:23;24.20;99.90
8824;DHT22;4448;50.904;4.694;2023-09-30T12:33:49;24.20;99.90
8824;DHT22;4448;50.904;4.694;2023-09-30T12:36:18;24.10;99.90
8824;DHT22;4448;50.904;4.694;2023-09-30T12:38:43;24.10;99.90
8824;DHT22;4448;50.904;4.694;2023-09-30T12:41:10;24.00;99.90
8824;DHT22;4448;50.904;4.694;2023-09-30T12:43:36;24.10;99.90
8824;DHT22;4448;50.904;4.694;2023-09-30T12:46:02;24.00;99.90
8824;DHT22;4448;50.904;4.694;2023-09-30T12:48:30;23.90;99.90
8824;DHT22;4448;50.904;4.694;2023-09-30T12:50:55;23.90;99.90
8824;DHT22;4448;50.904;4.694;2023-09-30T12:53:21;23.80;99.90
8824;DHT22;4448;50.904;4.694;2023-09-30T12:55:47;23.60;99.90
8824;DHT22;4448;50.904;4.694;2023-09-30T12:58:12;23.70;99.90
8824;DHT22;4448;50.904;4.694;2023-09-30T13:00:38;23.80;99.90
8824;DHT22;4448;50.904;4.694;2023-09-30T13:03:04;23.60;99.90
8824;DHT22;4448;50.904;4.694;2023-09-30T13:05:30;23.80;99.90
8824;DHT22;4448;50.904;4.694;2023-09-30T13:07:56;23.60;99.90
8824;DHT22;4448;50.904;4.694;2023-09-30T13:10:23;23.60;99.90
8824;DHT22;4448;50.904;4.694;2023-09-30T13:12:49;23.60;99.90
8824;DHT22;4448;50.904;4.694;2023-09-30T13:15:15;23.60;99.90
8824;DHT22;4448;50.904;4.694;2023-09-30T13:17:42;23.60;99.90
8824;DHT22;4448;50.904;4.694;2023-09-30T13:20:09;23.80;99.90
8824;DHT22;4448;50.904;4.694;2023-09-30T13:25:04;22.60;99.90
8824;DHT22;4448;50.904;4.694;2023-09-30T13:27:31;23.70;99.90
8824;DHT22;4448;50.904;4.694;2023-09-30T13:29:57;23.80;99.90
8824;DHT22;4448;50.904;4.694;2023-09-30T13:32:24;23.70;99.90
8824;DHT22;4448;50.904;4.694;2023-09-30T13:34:53;23.60;99.90
8824;DHT22;4448;50.904;4.694;2023-09-30T13:37:19;23.60;99.90
8824;DHT22;4448;50.904;4.694;2023-09-30T13:39:45;23.50;99.90
8824;DHT22;4448;50.904;4.694;2023-09-30T13:42:11;23.10;99.90
8824;DHT22;4448;50.904;4.694;2023-09-30T13:44:37;23.60;99.90
8824;DHT22;4448;50.904;4.694;2023-09-30T13:47:03;23.70;99.90
8824;DHT22;4448;50.904;4.694;2023-09-30T13:49:29;23.70;99.90
8824;DHT22;4448;50.904;4.694;2023-09-30T13:51:59;23.50;99.90
8824;DHT22;4448;50.904;4.694;2023-09-30T13:54:24;23.60;99.90
8824;DHT22;4448;50.904;4.694;2023-09-30T13:56:50;23.60;99.90
8824;DHT22;4448;50.904;4.694;2023-09-30T13:59:16;23.40;99.90
8824;DHT22;4448;50.904;4.694;2023-09-30T14:01:41;23.50;99.90
8824;DHT22;4448;50.904;4.694;2023-09-30T14:04:08;23.40;99.90
8824;DHT22;4448;50.904;4.694;2023-09-30T14:06:34;23.40;99.90
8824;DHT22;4448;50.904;4.694;2023-09-30T14:09:00;23.20;99.90
8824;DHT22;4448;50.904;4.694;2023-09-30T14:11:26;23.30;99.90
8824;DHT22;4448;50.904;4.694;2023-09-30T14:13:52;23.20;99.90
8824;DHT22;4448;50.904;4.694;2023-09-30T14:16:18;23.10;99.90
8824;DHT22;4448;50.904;4.694;2023-09-30T14:18:44;23.20;99.90
8824;DHT22;4448;50.904;4.694;2023-09-30T14:21:10;23.10;99.90
8824;DHT22;4448;50.904;4.694;2023-09-30T14:23:36;23.00;99.90
8824;DHT22;4448;50.904;4.694;2023-09-30T14:26:02;23.20;99.90
8824;DHT22;4448;50.904;4.694;2023-09-30T14:28:36;23.00;99.90
8824;DHT22;4448;50.904;4.694;2023-09-30T14:31:05;23.30;99.90
8824;DHT22;4448;50.904;4.694;2023-09-30T14:33:31;22.90;99.90
8824;DHT22;4448;50.904;4.694;2023-09-30T14:35:57;22.90;99.90
8824;DHT22;4448;50.904;4.694;2023-09-30T14:38:23;22.90;99.90
8824;DHT22;4448;50.904;4.694;2023-09-30T14:40:49;22.80;99.90
8824;DHT22;4448;50.904;4.694;2023-09-30T14:43:15;22.80;99.90
8824;DHT22;4448;50.904;4.694;2023-09-30T14:45:41;22.80;99.90
8824;DHT22;4448;50.904;4.694;2023-09-30T14:48:08;22.80;99.90
8824;DHT22;4448;50.904;4.694;2023-09-30T14:50:35;22.80;99.90
8824;DHT22;4448;50.904;4.694;2023-09-30T14:53:02;22.70;99.90
8824;DHT22;4448;50.904;4.694;2023-09-30T14:55:28;22.00;99.90
8824;DHT22;4448;50.904;4.694;2023-09-30T14:57:55;22.70;99.90
8824;DHT22;4448;50.904;4.694;2023-09-30T15:00:21;22.60;99.90
8824;DHT22;4448;50.904;4.694;2023-09-30T15:02:50;22.60;99.90
8824;DHT22;4448;50.904;4.694;2023-09-30T15:05:16;22.60;99.90
8824;DHT22;4448;50.904;4.694;2023-09-30T15:07:42;22.60;99.90
8824;DHT22;4448;50.904;4.694;2023-09-30T15:10:08;22.40;99.90
8824;DHT22;4448;50.904;4.694;2023-09-30T15:12:34;22.40;99.90
8824;DHT22;4448;50.904;4.694;2023-09-30T15:15:00;22.50;99.90
8824;DHT22;4448;50.904;4.694;2023-09-30T15:17:26;22.40;99.90
8824;DHT22;4448;50.904;4.694;2023-09-30T15:19:52;22.40;99.90
8824;DHT22;4448;50.904;4.694;2023-09-30T15:22:18;22.30;99.90
8824;DHT22;4448;50.904;4.694;2023-09-30T15:24:43;22.30;99.90
8824;DHT22;4448;50.904;4.694;2023-09-30T15:27:09;22.20;99.90
8824;DHT22;4448;50.904;4.694;2023-09-30T15:29:35;22.20;99.90
8824;DHT22;4448;50.904;4.694;2023-09-30T15:32:03;22.20;99.90
8824;DHT22;4448;50.904;4.694;2023-09-30T15:34:29;22.20;99.90
8824;DHT22;4448;50.904;4.694;2023-09-30T15:36:54;22.00;99.90
8824;DHT22;4448;50.904;4.694;2023-09-30T15:39:20;22.10;99.90
8824;DHT22;4448;50.904;4.694;2023-09-30T15:41:47;22.00;99.90
8824;DHT22;4448;50.904;4.694;2023-09-30T15:44:13;21.90;99.90
8824;DHT22;4448;50.904;4.694;2023-09-30T15:46:38;21.80;99.90
8824;DHT22;4448;50.904;4.694;2023-09-30T15:49:04;21.90;99.90
8824;DHT22;4448;50.904;4.694;2023-09-30T15:51:30;21.70;99.90
8824;DHT22;4448;50.904;4.694;2023-09-30T15:53:56;21.60;99.90
8824;DHT22;4448;50.904;4.694;2023-09-30T15:56:22;21.70;99.90
8824;DHT22;4448;50.904;4.694;2023-09-30T15:58:48;21.60;99.90
8824;DHT22;4448;50.904;4.694;2023-09-30T16:01:14;21.60;99.90
8824;DHT22;4448;50.904;4.694;2023-09-30T16:03:39;21.40;99.90
8824;DHT22;4448;50.904;4.694;2023-09-30T16:06:07;21.50;99.90
8824;DHT22;4448;50.904;4.694;2023-09-30T16:08:33;21.30;99.90
8824;DHT22;4448;50.904;4.694;2023-09-30T16:10:59;21.40;99.90
8824;DHT22;4448;50.904;4.694;2023-09-30T16:13:24;21.30;99.90
8824;DHT22;4448;50.904;4.694;2023-09-30T16:15:50;21.30;99.90
8824;DHT22;4448;50.904;4.694;2023-09-30T16:18:16;21.30;99.90
8824;DHT22;4448;50.904;4.694;2023-09-30T16:20:42;21.20;99.90
8824;DHT22;4448;50.904;4.694;2023-09-30T16:23:07;21.20;99.90
8824;DHT22;4448;50.904;4.694;2023-09-30T16:25:34;21.20;99.90
8824;DHT22;4448;50.904;4.694;2023-09-30T16:28:03;21.10;99.90
8824;DHT22;4448;50.904;4.694;2023-09-30T16:30:29;21.10;99.90
8824;DHT22;4448;50.904;4.694;2023-09-30T16:32:55;21.00;99.90
8824;DHT22;4448;50.904;4.694;2023-09-30T16:35:21;21.00;99.90
8824;DHT22;4448;50.904;4.694;2023-09-30T16:37:47;21.00;99.90
8824;DHT22;4448;50.904;4.694;2023-09-30T16:40:13;21.00;99.90
8824;DHT22;4448;50.904;4.694;2023-09-30T16:42:39;20.90;99.90
8824;DHT22;4448;50.904;4.694;2023-09-30T16:45:05;20.90;99.90
8824;DHT22;4448;50.904;4.694;2023-09-30T16:47:31;20.80;99.90
8824;DHT22;4448;50.904;4.694;2023-09-30T16:49:58;20.80;99.90
8824;DHT22;4448;50.904;4.694;2023-09-30T16:52:24;21.00;99.90
8824;DHT22;4448;50.904;4.694;2023-09-30T16:54:50;20.70;99.90